Time;durP1;ratioP1;P1;durP2;ratioP2;P2;SDS_P1;SDS_P2;PMS_P1;PMS_P2;Temp;Humidity;BMP_temperature;BMP_pressure;BME280_temperature;BME280_humidity;BME280_pressure;Samples;Min_cycle;Max_cycle;Signal;HPM_P1;HPM_P2
2023/12/08 08:03:02;;;;;;;34.40;18.93;;;0.10;42.40;;;;;;5076602;27;21073;-66
2023/12/08 08:05:29;;;;;;;26.07;17.80;;;-0.10;44.00;;;;;;5076774;28;20465;-66
2023/12/08 08:07:56;;;;;;;33.67;18.10;;;0.10;46.00;;;;;;5075953;28;20533;-66
2023/12/08 08:10:23;;;;;;;31.00;17.40;;;0.30;45.60;;;;;;5075717;28;20463;-66
2023/12/08 08:12:50;;;;;;;26.87;17.00;;;0.60;44.50;;;;;;5077509;28;20453;-66
2023/12/08 08:15:16;;;;;;;27.63;18.97;;;0.80;43.50;;;;;;5080115;28;20456;-66
2023/12/08 08:17:43;;;;;;;26.13;17.70;;;1.10;42.40;;;;;;5079733;28;20480;-66
2023/12/08 08:20:12;;;;;;;26.17;18.13;;;1.30;41.70;;;;;;5076341;28;20461;-66
2023/12/08 08:22:39;;;;;;;26.20;16.70;;;1.50;41.00;;;;;;5075864;28;20849;-66
2023/12/08 08:25:07;;;;;;;24.80;16.33;;;1.70;40.20;;;;;;5076714;28;20467;-66
2023/12/08 08:27:34;;;;;;;27.17;17.57;;;1.80;39.30;;;;;;5079253;28;20486;-66
2023/12/08 08:30:02;;;;;;;24.30;16.63;;;1.90;38.70;;;;;;5072485;28;20453;-66
2023/12/08 08:32:29;;;;;;;23.17;16.87;;;2.00;37.00;;;;;;5058631;28;20565;-66
2023/12/08 08:34:56;;;;;;;24.43;17.03;;;2.10;37.40;;;;;;5058263;28;21444;-67
2023/12/08 08:37:24;;;;;;;24.87;16.40;;;2.20;36.50;;;;;;5050678;28;20556;-67
2023/12/08 08:39:51;;;;;;;25.53;16.20;;;2.30;36.10;;;;;;5053713;28;20606;-67
2023/12/08 08:42:19;;;;;;;24.00;16.77;;;2.40;35.60;;;;;;5055456;28;20480;-67
2023/12/08 08:44:46;;;;;;;27.10;17.57;;;2.40;35.10;;;;;;5057583;28;20493;-65
2023/12/08 08:47:13;;;;;;;25.10;17.87;;;2.50;34.70;;;;;;5052376;28;20481;-65
2023/12/08 08:49:40;;;;;;;26.33;18.93;;;2.50;35.00;;;;;;5056383;28;20977;-64
2023/12/08 08:52:07;;;;;;;30.30;20.03;;;2.60;34.10;;;;;;5053915;28;20461;-65
2023/12/08 08:54:35;;;;;;;29.77;19.70;;;2.70;33.90;;;;;;5054714;28;20618;-64
2023/12/08 08:57:04;;;;;;;31.47;19.50;;;2.70;33.70;;;;;;5049473;28;20495;-64
2023/12/08 08:59:31;;;;;;;26.33;18.07;;;2.80;33.50;;;;;;5056867;28;20582;-64
2023/12/08 09:01:58;;;;;;;36.33;20.50;;;2.80;33.90;;;;;;5067338;27;20481;-63
2023/12/08 09:04:25;;;;;;;35.63;21.00;;;2.90;33.00;;;;;;5070818;28;20929;-64
2023/12/08 09:06:52;;;;;;;27.33;18.07;;;3.00;32.00;;;;;;5074848;28;20480;-63
2023/12/08 09:09:18;;;;;;;28.57;18.23;;;3.10;32.10;;;;;;5075164;28;20463;-64
2023/12/08 09:11:47;;;;;;;26.17;19.07;;;3.10;31.30;;;;;;5068775;28;21233;-64
2023/12/08 09:14:13;;;;;;;27.10;18.90;;;3.20;31.10;;;;;;5060249;28;20461;-64
2023/12/08 09:16:40;;;;;;;32.80;22.30;;;3.20;30.90;;;;;;5059995;28;20477;-63
2023/12/08 09:19:07;;;;;;;32.33;20.00;;;3.30;31.40;;;;;;5055163;28;20464;-64
2023/12/08 09:21:34;;;;;;;28.13;19.07;;;3.30;31.50;;;;;;5060811;28;20481;-65
2023/12/08 09:24:01;;;;;;;27.83;18.60;;;3.40;31.50;;;;;;5062949;28;20468;-66
2023/12/08 09:26:29;;;;;;;29.40;20.17;;;3.40;31.50;;;;;;5055014;28;20504;-66
2023/12/08 09:28:57;;;;;;;32.80;21.33;;;3.40;31.60;;;;;;5060942;28;20580;-64
2023/12/08 09:31:24;;;;;;;30.63;20.23;;;3.40;31.50;;;;;;5059347;28;20560;-65
2023/12/08 09:33:50;;;;;;;31.53;21.07;;;3.50;31.50;;;;;;5067097;28;20452;-64
2023/12/08 09:36:17;;;;;;;29.33;21.40;;;3.50;31.50;;;;;;5066551;28;20487;-64
2023/12/08 09:38:44;;;;;;;31.37;23.00;;;3.50;31.50;;;;;;5065123;28;20453;-64
2023/12/08 09:41:13;;;;;;;32.60;21.67;;;3.60;31.50;;;;;;5062629;28;21341;-65
2023/12/08 09:43:43;;;;;;;29.17;21.40;;;3.60;31.40;;;;;;5063458;28;20893;-63
2023/12/08 09:46:15;;;;;;;33.67;20.70;;;3.60;31.50;;;;;;5067691;28;20465;-64
2023/12/08 09:48:45;;;;;;;30.07;21.30;;;3.70;31.50;;;;;;5061798;28;20461;-64
2023/12/08 09:51:14;;;;;;;29.90;20.50;;;3.70;31.40;;;;;;5062088;28;20475;-65
2023/12/08 09:53:42;;;;;;;33.93;20.20;;;3.70;31.30;;;;;;5059045;28;20560;-64
2023/12/08 09:56:10;;;;;;;42.93;20.37;;;3.70;31.30;;;;;;5059838;28;20454;-65
2023/12/08 09:58:38;;;;;;;36.57;22.53;;;3.80;31.30;;;;;;5063386;28;20548;-64
2023/12/08 10:01:06;;;;;;;34.57;22.60;;;3.90;31.10;;;;;;5065085;28;20469;-63
2023/12/08 10:03:35;;;;;;;28.80;22.20;;;3.90;30.60;;;;;;5065180;28;20480;-64
2023/12/08 10:06:02;;;;;;;35.47;23.07;;;3.90;31.20;;;;;;5062644;28;20464;-64
2023/12/08 10:08:30;;;;;;;32.00;23.07;;;4.00;30.40;;;;;;5068755;28;20650;-64
2023/12/08 10:10:57;;;;;;;30.43;22.53;;;4.00;30.40;;;;;;5057503;28;20998;-64
2023/12/08 10:13:24;;;;;;;30.43;20.80;;;4.00;30.40;;;;;;5058597;28;20453;-64
2023/12/08 10:15:51;;;;;;;33.23;22.43;;;4.10;30.40;;;;;;5054807;28;20542;-64
2023/12/08 10:18:24;;;;;;;33.17;23.13;;;4.10;30.40;;;;;;5063941;28;20992;-64
2023/12/08 10:20:53;;;;;;;33.70;22.60;;;4.10;30.40;;;;;;5061203;28;20457;-64
2023/12/08 10:23:20;;;;;;;34.90;22.60;;;4.10;30.30;;;;;;5062872;28;20481;-64
2023/12/08 10:25:48;;;;;;;40.60;22.63;;;4.20;31.10;;;;;;5065231;28;20468;-64
2023/12/08 10:28:15;;;;;;;42.13;23.07;;;4.20;30.30;;;;;;5067133;28;20485;-64
2023/12/08 10:30:46;;;;;;;36.37;21.50;;;4.20;30.20;;;;;;5059450;28;20467;-64
2023/12/08 10:33:20;;;;;;;32.07;21.37;;;4.30;30.50;;;;;;5068795;28;20457;-63
2023/12/08 10:35:47;;;;;;;36.73;22.93;;;4.30;31.30;;;;;;5070652;28;20530;-64
2023/12/08 10:38:15;;;;;;;32.63;22.40;;;4.30;30.50;;;;;;5077522;28;20588;-64
2023/12/08 10:40:47;;;;;;;34.03;21.17;;;4.30;30.40;;;;;;5070017;28;20548;-65
2023/12/08 10:43:22;;;;;;;33.13;21.10;;;4.40;30.30;;;;;;5070207;28;21262;-63
2023/12/08 10:45:50;;;;;;;31.10;20.30;;;4.40;30.40;;;;;;5076288;28;20469;-65
2023/12/08 10:48:19;;;;;;;35.93;20.07;;;4.50;30.50;;;;;;5070577;28;20508;-64
2023/12/08 10:50:47;;;;;;;33.70;21.17;;;4.50;30.60;;;;;;5068528;28;20503;-63
2023/12/08 10:53:18;;;;;;;28.97;20.57;;;4.50;30.70;;;;;;5064965;28;20544;-64
2023/12/08 10:55:46;;;;;;;39.60;21.53;;;4.60;30.60;;;;;;5061213;28;20470;-64
2023/12/08 10:58:16;;;;;;;37.40;21.67;;;4.60;30.90;;;;;;5064203;28;20495;-64
2023/12/08 11:00:44;;;;;;;28.03;19.00;;;4.70;30.80;;;;;;5058562;28;21022;-64
2023/12/08 11:03:15;;;;;;;35.20;21.07;;;4.70;31.70;;;;;;5060797;28;20480;-64
2023/12/08 11:05:47;;;;;;;28.40;18.20;;;4.80;31.00;;;;;;5055391;28;20485;-64
2023/12/08 11:08:19;;;;;;;25.03;16.67;;;4.80;31.40;;;;;;5061752;28;20899;-63
2023/12/08 11:10:47;;;;;;;28.50;16.33;;;4.80;31.80;;;;;;5054833;28;20471;-63
2023/12/08 11:13:27;;;;;;;22.47;14.63;;;4.90;31.30;;;;;;5065860;28;20469;-63
2023/12/08 11:16:13;;;;;;;25.67;15.30;;;4.90;31.60;;;;;;5060609;28;20530;-63
2023/12/08 11:18:40;;;;;;;23.50;15.93;;;4.90;31.80;;;;;;5059796;28;20465;-63
2023/12/08 11:21:08;;;;;;;22.67;15.50;;;5.00;31.70;;;;;;5067741;28;20847;-63
2023/12/08 11:23:38;;;;;;;25.90;14.50;;;5.00;31.80;;;;;;5062810;28;20484;-64
2023/12/08 11:26:12;;;;;;;25.63;13.50;;;5.10;31.80;;;;;;5061816;28;20469;-64
2023/12/08 11:28:48;;;;;;;22.57;14.13;;;5.20;32.30;;;;;;5062637;28;20453;-64
2023/12/08 11:31:21;;;;;;;23.33;13.13;;;5.20;31.70;;;;;;5061606;28;20584;-63
2023/12/08 11:33:54;;;;;;;22.27;13.57;;;5.30;31.90;;;;;;5059978;28;20468;-63
2023/12/08 11:36:21;;;;;;;22.60;14.07;;;5.30;31.90;;;;;;5063437;28;20857;-63
2023/12/08 11:38:50;;;;;;;22.60;15.03;;;5.40;31.80;;;;;;5066831;28;20461;-63
2023/12/08 11:41:18;;;;;;;27.10;13.90;;;5.40;32.10;;;;;;5062057;28;20461;-64
2023/12/08 11:43:46;;;;;;;23.33;13.47;;;5.50;32.10;;;;;;5062766;28;20480;-64
2023/12/08 11:46:15;;;;;;;20.33;13.00;;;5.60;31.70;;;;;;5058975;28;20466;-64
2023/12/08 11:48:43;;;;;;;21.40;14.23;;;5.70;31.90;;;;;;5060571;28;20836;-64
2023/12/08 11:51:12;;;;;;;19.90;12.07;;;5.70;31.80;;;;;;5065096;28;20501;-64
2023/12/08 11:53:54;;;;;;;22.40;13.73;;;5.80;31.90;;;;;;5061729;28;20470;-64
2023/12/08 11:56:42;;;;;;;23.23;13.53;;;5.90;32.50;;;;;;5065020;28;20484;-64
2023/12/08 11:59:09;;;;;;;20.50;13.50;;;6.00;31.80;;;;;;5064715;28;20458;-63
2023/12/08 12:01:38;;;;;;;23.37;13.40;;;6.10;31.40;;;;;;5063914;28;21131;-65
2023/12/08 12:04:05;;;;;;;23.37;11.60;;;6.10;31.10;;;;;;5064234;28;20991;-64
2023/12/08 12:06:32;;;;;;;16.90;12.57;;;6.20;30.70;;;;;;5059335;28;20484;-64
2023/12/08 12:09:02;;;;;;;21.53;11.57;;;6.20;30.60;;;;;;5059583;28;20557;-64
2023/12/08 12:11:33;;;;;;;18.27;11.07;;;6.30;30.70;;;;;;5064840;28;20952;-64
2023/12/08 12:14:01;;;;;;;17.07;11.20;;;6.40;30.40;;;;;;5065547;28;20946;-64
2023/12/08 12:16:28;;;;;;;18.67;12.90;;;6.40;30.10;;;;;;5063655;28;20837;-63
2023/12/08 12:18:55;;;;;;;17.97;10.40;;;6.40;30.00;;;;;;5058229;28;20461;-64
2023/12/08 12:21:22;;;;;;;16.63;10.70;;;6.50;30.00;;;;;;5060526;28;20548;-64
2023/12/08 12:23:49;;;;;;;20.53;12.07;;;6.50;29.90;;;;;;5064319;28;20480;-64
2023/12/08 12:26:20;;;;;;;16.97;11.43;;;6.50;30.00;;;;;;5064328;28;20465;-64
2023/12/08 12:28:47;;;;;;;16.70;10.10;;;6.50;29.70;;;;;;5061967;28;21294;-64
2023/12/08 12:31:15;;;;;;;16.77;11.17;;;6.60;29.40;;;;;;5064949;28;20474;-64
2023/12/08 12:33:44;;;;;;;19.43;10.17;;;6.60;29.30;;;;;;5066078;28;20989;-64
2023/12/08 12:36:12;;;;;;;16.37;11.00;;;6.60;29.50;;;;;;5066607;28;20563;-64
2023/12/08 12:38:40;;;;;;;21.87;12.73;;;6.60;29.50;;;;;;5030467;22;20490;-63
2023/12/08 12:41:22;;;;;;;16.90;10.67;;;6.60;29.20;;;;;;5006750;28;20934;-63
2023/12/08 12:43:49;;;;;;;15.33;9.90;;;6.70;29.40;;;;;;5004140;28;21421;-63
2023/12/08 12:46:16;;;;;;;27.93;15.20;;;6.70;29.50;;;;;;5009374;28;20484;-64
2023/12/08 12:48:42;;;;;;;24.50;14.77;;;6.70;29.20;;;;;;5028559;28;20473;-64
2023/12/08 12:51:09;;;;;;;16.67;11.07;;;6.70;29.70;;;;;;5030212;28;20465;-63
2023/12/08 12:53:44;;;;;;;18.37;11.93;;;6.70;29.70;;;;;;5025900;28;20456;-64
2023/12/08 12:56:11;;;;;;;14.93;9.50;;;6.60;30.00;;;;;;5031773;28;20455;-64
2023/12/08 12:58:40;;;;;;;18.03;11.40;;;6.60;29.80;;;;;;5029002;28;20952;-64
2023/12/08 13:01:13;;;;;;;16.93;11.47;;;6.60;30.00;;;;;;5025878;28;20484;-64
2023/12/08 13:03:46;;;;;;;17.47;11.20;;;6.50;30.30;;;;;;5030052;28;20489;-64
2023/12/08 13:06:12;;;;;;;18.00;11.60;;;6.50;30.70;;;;;;5027411;28;20470;-64
2023/12/08 13:08:43;;;;;;;18.90;11.67;;;6.50;30.00;;;;;;5029213;28;20462;-64
2023/12/08 13:11:10;;;;;;;20.60;11.30;;;6.50;30.00;;;;;;5024495;28;20612;-64
2023/12/08 13:13:39;;;;;;;18.57;12.77;;;6.50;30.20;;;;;;5028990;28;20455;-64
2023/12/08 13:16:06;;;;;;;16.60;11.53;;;6.50;30.20;;;;;;5028192;28;20815;-64
2023/12/08 13:18:34;;;;;;;16.23;10.50;;;6.50;30.00;;;;;;5028308;28;20470;-64
2023/12/08 13:21:01;;;;;;;17.97;11.10;;;6.60;30.00;;;;;;5033624;28;20463;-64
2023/12/08 13:23:28;;;;;;;25.00;12.13;;;6.60;29.80;;;;;;5030022;28;20485;-64
2023/12/08 13:25:55;;;;;;;15.33;10.40;;;6.50;30.00;;;;;;5027026;28;20817;-64
2023/12/08 13:28:21;;;;;;;18.10;10.73;;;6.50;30.00;;;;;;5029014;28;20477;-64
2023/12/08 13:30:50;;;;;;;17.10;9.73;;;6.50;30.00;;;;;;5030664;28;20550;-63
2023/12/08 13:33:17;;;;;;;17.70;10.97;;;6.50;30.00;;;;;;5028817;28;20839;-63
2023/12/08 13:35:43;;;;;;;18.83;10.10;;;6.50;29.80;;;;;;5030140;28;20485;-64
2023/12/08 13:38:11;;;;;;;18.00;9.40;;;6.40;30.40;;;;;;5031027;28;20565;-63
2023/12/08 13:40:37;;;;;;;20.00;10.17;;;6.40;29.80;;;;;;5026617;28;20455;-64
2023/12/08 13:43:04;;;;;;;21.50;10.37;;;6.40;29.70;;;;;;5030451;28;20841;-63
2023/12/08 13:45:32;;;;;;;16.53;10.03;;;6.30;29.90;;;;;;5031991;28;20473;-63
2023/12/08 13:48:00;;;;;;;18.73;9.50;;;6.30;30.30;;;;;;5028353;28;20481;-64
2023/12/08 13:50:27;;;;;;;19.00;10.47;;;6.30;30.60;;;;;;5024262;28;20469;-64
2023/12/08 13:52:54;;;;;;;17.87;9.97;;;6.20;30.10;;;;;;5028908;28;20463;-64
2023/12/08 13:55:22;;;;;;;18.70;11.30;;;6.20;30.30;;;;;;5028631;28;20500;-64
2023/12/08 13:57:49;;;;;;;20.40;11.17;;;6.20;30.40;;;;;;5032174;28;20478;-64
2023/12/08 14:00:17;;;;;;;24.93;11.80;;;6.10;30.50;;;;;;5027800;28;20465;-64
2023/12/08 14:02:44;;;;;;;19.33;12.17;;;6.10;30.80;;;;;;5028431;28;20453;-64
2023/12/08 14:05:12;;;;;;;20.70;11.97;;;6.10;30.80;;;;;;5027750;28;20469;-64
2023/12/08 14:07:39;;;;;;;18.40;11.10;;;6.00;31.00;;;;;;5029792;28;20479;-63
2023/12/08 14:10:08;;;;;;;22.30;12.40;;;6.00;31.10;;;;;;5032007;28;20454;-63
2023/12/08 14:12:35;;;;;;;21.70;12.40;;;6.00;31.20;;;;;;5027747;28;20463;-64
2023/12/08 14:15:02;;;;;;;17.33;11.30;;;6.00;31.10;;;;;;5022718;28;20914;-64
2023/12/08 14:17:29;;;;;;;18.30;11.17;;;6.00;31.70;;;;;;5025887;28;20478;-64
2023/12/08 14:19:56;;;;;;;18.60;12.73;;;6.00;31.10;;;;;;5023193;28;20526;-64
2023/12/08 14:22:24;;;;;;;19.43;12.80;;;5.90;31.30;;;;;;5025928;28;20495;-64
2023/12/08 14:24:51;;;;;;;17.30;11.13;;;5.90;31.50;;;;;;5028799;28;20501;-64
2023/12/08 14:27:18;;;;;;;23.83;13.30;;;5.90;32.00;;;;;;5024951;28;20493;-64
2023/12/08 14:29:45;;;;;;;19.90;12.07;;;5.90;31.50;;;;;;5020084;28;20467;-64
2023/12/08 14:32:13;;;;;;;19.10;12.53;;;5.90;31.60;;;;;;5025166;28;20474;-64
2023/12/08 14:34:40;;;;;;;18.60;12.90;;;5.90;31.30;;;;;;5024894;28;20464;-64
2023/12/08 14:37:07;;;;;;;19.47;10.80;;;5.80;31.50;;;;;;5025784;28;20501;-64
2023/12/08 14:39:35;;;;;;;19.47;12.47;;;5.80;32.20;;;;;;5026144;28;20845;-64
2023/12/08 14:42:02;;;;;;;20.40;12.47;;;5.80;31.60;;;;;;5023311;28;20462;-64
2023/12/08 14:44:29;;;;;;;16.10;11.23;;;5.80;31.80;;;;;;5025976;28;20487;-64
2023/12/08 14:46:55;;;;;;;18.13;11.10;;;5.80;31.90;;;;;;5025683;28;20558;-64
2023/12/08 14:49:22;;;;;;;22.67;12.20;;;5.70;31.90;;;;;;5017159;28;21138;-64
2023/12/08 14:51:49;;;;;;;19.17;12.00;;;5.70;31.90;;;;;;5017263;28;20470;-64
2023/12/08 14:54:16;;;;;;;16.77;11.40;;;5.70;32.20;;;;;;5023784;28;20459;-64
2023/12/08 14:56:45;;;;;;;17.07;10.53;;;5.70;32.20;;;;;;5026379;28;20488;-64
2023/12/08 14:59:11;;;;;;;18.93;11.57;;;5.70;32.30;;;;;;5027176;28;20463;-64
2023/12/08 15:01:38;;;;;;;18.20;11.57;;;5.70;32.20;;;;;;5024649;28;20513;-64
2023/12/08 15:04:05;;;;;;;16.77;9.97;;;5.70;32.40;;;;;;5025628;28;20479;-64
2023/12/08 15:06:32;;;;;;;17.27;11.10;;;5.70;32.50;;;;;;5024439;28;20482;-64
2023/12/08 15:08:59;;;;;;;18.37;11.40;;;5.70;32.50;;;;;;5025669;28;20463;-64
2023/12/08 15:11:26;;;;;;;18.67;11.40;;;5.60;32.60;;;;;;5025131;28;20459;-64
2023/12/08 15:13:54;;;;;;;19.33;12.80;;;5.60;32.60;;;;;;5027044;28;20454;-64
2023/12/08 15:17:11;;;;;;;17.73;12.83;;;5.60;33.30;;;;;;5024693;28;20478;-64
2023/12/08 15:19:37;;;;;;;18.20;11.30;;;5.60;32.70;;;;;;5025721;28;20954;-64
2023/12/08 15:22:05;;;;;;;16.27;11.30;;;5.60;32.60;;;;;;5026408;28;20466;-64
2023/12/08 15:24:31;;;;;;;18.67;9.43;;;5.60;32.70;;;;;;5026512;28;20475;-64
2023/12/08 15:26:58;;;;;;;15.70;10.90;;;5.60;33.30;;;;;;5026916;28;20565;-64
2023/12/08 15:29:26;;;;;;;20.17;11.80;;;5.60;32.80;;;;;;5026419;28;20463;-64
2023/12/08 15:31:54;;;;;;;18.53;11.63;;;5.60;32.50;;;;;;5029694;28;21024;-64
2023/12/08 15:34:21;;;;;;;16.40;11.70;;;5.60;32.70;;;;;;5023091;28;20540;-64
2023/12/08 15:36:49;;;;;;;18.50;12.60;;;5.60;32.90;;;;;;5027306;28;20479;-64
2023/12/08 15:39:17;;;;;;;19.50;12.20;;;5.60;32.80;;;;;;5025356;28;21462;-64
2023/12/08 15:41:44;;;;;;;17.60;13.17;;;5.50;32.90;;;;;;5023745;28;20467;-64
2023/12/08 15:44:11;;;;;;;18.17;11.80;;;5.50;33.00;;;;;;5024372;28;20478;-64
2023/12/08 15:46:39;;;;;;;14.90;10.00;;;5.50;33.00;;;;;;5020941;28;20615;-64
2023/12/08 15:49:06;;;;;;;18.10;11.30;;;5.50;32.90;;;;;;5025478;28;20458;-65
2023/12/08 15:51:32;;;;;;;19.20;12.07;;;5.50;32.90;;;;;;5026844;28;20455;-66
2023/12/08 15:54:00;;;;;;;16.17;11.03;;;5.50;32.90;;;;;;5025967;28;21007;-66
2023/12/08 15:56:27;;;;;;;19.60;11.93;;;5.50;33.00;;;;;;5025620;28;20506;-66
2023/12/08 15:58:55;;;;;;;18.10;11.10;;;5.50;33.10;;;;;;5026402;28;20971;-67
2023/12/08 16:01:22;;;;;;;20.00;12.40;;;5.50;33.10;;;;;;5020111;28;20537;-66
2023/12/08 16:03:50;;;;;;;17.33;12.00;;;5.50;33.60;;;;;;5023318;28;20230;-67
2023/12/08 16:06:18;;;;;;;17.93;11.60;;;5.60;33.10;;;;;;5027981;28;20487;-67
2023/12/08 16:08:45;;;;;;;18.17;11.97;;;5.60;32.90;;;;;;5026253;28;20462;-68
2023/12/08 16:11:15;;;;;;;18.00;12.00;;;5.50;33.10;;;;;;5025502;28;20543;-66
2023/12/08 16:13:42;;;;;;;17.23;12.20;;;5.50;33.60;;;;;;5023848;28;20459;-66
2023/12/08 16:16:10;;;;;;;20.13;12.23;;;5.50;33.10;;;;;;5025114;28;20577;-67
2023/12/08 16:18:37;;;;;;;18.17;12.10;;;5.50;33.20;;;;;;5026934;28;20930;-67
2023/12/08 16:21:05;;;;;;;19.97;12.30;;;5.50;33.20;;;;;;5024034;28;20465;-67
2023/12/08 16:23:32;;;;;;;19.57;12.53;;;5.50;33.30;;;;;;5026095;28;20463;-64
2023/12/08 16:26:02;;;;;;;17.67;11.47;;;5.50;33.40;;;;;;5026166;28;20463;-66
2023/12/08 16:28:29;;;;;;;18.73;11.50;;;5.50;33.30;;;;;;5020888;28;20466;-67
2023/12/08 16:30:56;;;;;;;15.80;11.17;;;5.50;34.00;;;;;;5024899;28;20470;-67
2023/12/08 16:33:23;;;;;;;21.97;13.47;;;5.50;33.50;;;;;;5020284;28;20466;-67
2023/12/08 16:35:51;;;;;;;19.47;12.83;;;5.50;33.50;;;;;;5034553;28;20468;-67
2023/12/08 16:38:19;;;;;;;21.03;13.47;;;5.50;33.40;;;;;;5031930;28;20522;-67
2023/12/08 16:43:15;;;;;;;20.17;14.10;;;5.50;33.70;;;;;;5021699;28;20471;-64
2023/12/08 16:45:42;;;;;;;16.83;12.20;;;5.50;33.80;;;;;;5025377;28;20564;-64
2023/12/08 16:48:09;;;;;;;20.37;13.63;;;5.50;33.80;;;;;;5015296;28;20490;-64
2023/12/08 16:50:36;;;;;;;21.53;13.17;;;5.50;33.90;;;;;;5010241;28;20737;-64
2023/12/08 16:53:03;;;;;;;21.07;13.87;;;5.50;34.10;;;;;;5008259;28;20466;-63
2023/12/08 16:55:31;;;;;;;19.83;13.00;;;5.50;34.00;;;;;;5012503;28;20945;-64
2023/12/08 16:57:59;;;;;;;22.70;14.00;;;5.50;34.20;;;;;;5014320;28;20583;-63
2023/12/08 17:00:25;;;;;;;24.30;13.87;;;5.40;34.20;;;;;;5006784;28;20526;-64
2023/12/08 17:02:52;;;;;;;22.33;15.50;;;5.40;35.00;;;;;;4990148;28;20555;-63
2023/12/08 17:05:19;;;;;;;23.10;14.97;;;5.40;34.40;;;;;;4995016;28;20484;-63
2023/12/08 17:07:47;;;;;;;23.07;14.70;;;5.40;34.30;;;;;;4997597;28;20480;-63
2023/12/08 17:10:15;;;;;;;25.97;15.00;;;5.40;34.50;;;;;;4992794;28;20895;-63
2023/12/08 17:12:44;;;;;;;25.57;16.20;;;5.40;34.70;;;;;;4997288;28;20472;-63
2023/12/08 17:15:11;;;;;;;23.50;16.60;;;5.40;34.80;;;;;;4993878;28;20467;-63
2023/12/08 17:17:37;;;;;;;28.73;18.80;;;5.40;34.80;;;;;;4999268;28;21163;-64
2023/12/08 17:20:05;;;;;;;28.67;18.63;;;5.40;34.80;;;;;;4990319;28;20468;-63
2023/12/08 17:22:32;;;;;;;26.00;17.37;;;5.40;34.70;;;;;;4997743;28;20941;-64
2023/12/08 17:24:59;;;;;;;26.80;16.00;;;5.40;34.80;;;;;;4991410;28;20572;-65
2023/12/08 17:27:26;;;;;;;26.57;17.10;;;5.40;34.80;;;;;;4989247;28;20494;-64
2023/12/08 17:29:54;;;;;;;32.07;17.67;;;5.40;35.40;;;;;;4989901;28;20469;-63
2023/12/08 17:32:21;;;;;;;25.53;18.37;;;5.40;34.90;;;;;;4988641;28;20491;-63
2023/12/08 17:34:48;;;;;;;32.63;22.00;;;5.40;34.80;;;;;;4991136;28;20460;-63
2023/12/08 17:37:15;;;;;;;38.50;22.90;;;5.40;35.40;;;;;;4983958;28;20485;-64
2023/12/08 17:39:41;;;;;;;30.20;17.90;;;5.40;34.80;;;;;;4990195;28;20465;-64
2023/12/08 17:42:08;;;;;;;27.57;18.87;;;5.40;34.80;;;;;;4988969;28;21942;-64
2023/12/08 17:44:35;;;;;;;29.67;18.00;;;5.40;34.90;;;;;;4986799;28;20732;-64
2023/12/08 17:47:04;;;;;;;27.00;18.17;;;5.40;34.90;;;;;;4979357;28;20733;-64
2023/12/08 17:49:31;;;;;;;27.40;16.33;;;5.40;34.80;;;;;;4988423;28;20467;-64
2023/12/08 17:51:58;;;;;;;22.40;14.73;;;5.40;34.70;;;;;;4990604;28;21052;-64
2023/12/08 17:54:25;;;;;;;25.93;16.87;;;5.40;35.10;;;;;;4988961;28;20960;-64
2023/12/08 17:56:52;;;;;;;25.17;17.77;;;5.40;35.20;;;;;;4985662;28;20491;-64
2023/12/08 17:59:19;;;;;;;59.80;35.07;;;5.40;34.80;;;;;;4988895;28;20480;-64
2023/12/08 18:01:45;;;;;;;27.90;18.90;;;5.40;34.70;;;;;;4988280;28;20840;-64
2023/12/08 18:04:14;;;;;;;29.00;18.63;;;5.40;34.60;;;;;;4984825;28;20862;-64
2023/12/08 18:06:40;;;;;;;29.30;18.73;;;5.40;34.60;;;;;;4969431;28;20483;-64
2023/12/08 18:09:08;;;;;;;30.97;18.83;;;5.40;34.50;;;;;;4986417;28;20472;-64
2023/12/08 18:11:35;;;;;;;33.70;22.90;;;5.40;34.70;;;;;;4990447;28;20487;-64
2023/12/08 18:14:03;;;;;;;28.73;17.07;;;5.40;34.50;;;;;;4994206;28;20948;-64
2023/12/08 18:16:30;;;;;;;32.80;17.77;;;5.40;34.50;;;;;;4989039;28;20518;-64
2023/12/08 18:18:58;;;;;;;29.07;18.67;;;5.40;35.20;;;;;;4988795;28;20476;-64
2023/12/08 18:21:27;;;;;;;25.90;18.10;;;5.40;34.50;;;;;;4989062;28;20465;-64
2023/12/08 18:23:54;;;;;;;26.73;17.90;;;5.40;34.70;;;;;;4988303;28;20954;-64
2023/12/08 18:26:21;;;;;;;27.90;17.17;;;5.40;34.80;;;;;;4989520;28;20493;-64
2023/12/08 18:28:49;;;;;;;32.50;18.33;;;5.40;34.70;;;;;;4992732;28;20663;-64
2023/12/08 18:31:24;;;;;;;29.50;17.70;;;5.40;35.40;;;;;;4989817;28;20523;-64
2023/12/08 18:33:52;;;;;;;36.17;21.40;;;5.40;34.90;;;;;;4987370;28;20464;-64
2023/12/08 18:36:20;;;;;;;33.37;21.77;;;5.40;34.90;;;;;;4988006;28;20481;-64
2023/12/08 18:38:49;;;;;;;28.17;19.17;;;5.40;34.90;;;;;;4991259;28;20864;-64
2023/12/08 18:41:16;;;;;;;30.03;18.50;;;5.40;34.90;;;;;;4990224;28;21073;-64
2023/12/08 18:43:43;;;;;;;27.50;18.03;;;5.40;35.00;;;;;;4989267;28;20474;-63
2023/12/08 18:46:10;;;;;;;32.30;17.70;;;5.40;35.10;;;;;;4985878;28;20488;-63
2023/12/08 18:48:37;;;;;;;26.70;18.90;;;5.30;35.10;;;;;;4988082;28;20504;-63
2023/12/08 18:51:04;;;;;;;27.73;17.83;;;5.30;35.00;;;;;;4985903;28;21131;-63
2023/12/08 18:53:32;;;;;;;30.93;19.13;;;5.30;35.20;;;;;;4987146;28;20469;-64
2023/12/08 18:56:02;;;;;;;33.07;18.83;;;5.40;35.20;;;;;;4988094;28;20456;-63
2023/12/08 18:58:29;;;;;;;31.07;19.30;;;5.30;35.20;;;;;;4991972;28;20465;-64
2023/12/08 19:00:56;;;;;;;29.73;18.83;;;5.30;35.40;;;;;;4995784;28;20471;-63
2023/12/08 19:03:22;;;;;;;32.57;20.57;;;5.30;35.40;;;;;;5005395;28;20470;-64
2023/12/08 19:05:49;;;;;;;31.80;19.77;;;5.30;35.50;;;;;;5006865;28;20491;-63
2023/12/08 19:08:16;;;;;;;32.33;20.80;;;5.30;35.50;;;;;;5009126;28;20863;-63
2023/12/08 19:10:44;;;;;;;32.50;19.73;;;5.30;35.50;;;;;;5016328;28;20463;-63
2023/12/08 19:13:12;;;;;;;29.40;19.10;;;5.30;35.60;;;;;;5008460;28;20456;-63
2023/12/08 19:15:39;;;;;;;38.37;21.93;;;5.30;35.50;;;;;;5007398;28;20825;-63
2023/12/08 19:18:06;;;;;;;31.83;19.67;;;5.30;35.50;;;;;;5001727;28;20487;-63
2023/12/08 19:20:32;;;;;;;36.10;20.30;;;5.30;35.50;;;;;;5007507;28;20476;-63
2023/12/08 19:23:00;;;;;;;33.13;20.40;;;5.40;35.50;;;;;;5007883;28;20462;-63
2023/12/08 19:25:27;;;;;;;34.67;20.50;;;5.30;35.40;;;;;;5007238;28;20479;-63
2023/12/08 19:27:54;;;;;;;32.77;20.30;;;5.40;35.30;;;;;;5005951;28;20486;-63
2023/12/08 19:30:22;;;;;;;35.00;20.80;;;5.40;35.90;;;;;;5006616;28;20530;-63
2023/12/08 19:32:49;;;;;;;38.93;19.70;;;5.40;35.30;;;;;;5010335;28;20467;-63
2023/12/08 19:35:16;;;;;;;35.57;20.43;;;5.30;35.40;;;;;;5003920;28;20534;-63
2023/12/08 19:37:43;;;;;;;29.90;20.10;;;5.40;35.40;;;;;;5005502;28;20486;-63
2023/12/08 19:40:11;;;;;;;34.47;22.10;;;5.30;35.60;;;;;;5002545;28;21118;-64
2023/12/08 19:42:38;;;;;;;35.70;23.00;;;5.30;35.40;;;;;;5005037;28;20575;-64
2023/12/08 19:45:05;;;;;;;38.23;22.67;;;5.30;35.50;;;;;;5006779;28;21066;-64
2023/12/08 19:47:34;;;;;;;35.07;22.70;;;5.30;35.50;;;;;;5004362;28;20497;-64
2023/12/08 19:50:02;;;;;;;30.07;20.37;;;5.30;35.60;;;;;;5002107;28;20477;-64
2023/12/08 19:52:29;;;;;;;32.83;21.60;;;5.30;35.50;;;;;;5006154;28;20464;-64
2023/12/08 19:54:56;;;;;;;32.97;20.73;;;5.30;35.50;;;;;;5004158;28;20462;-64
2023/12/08 19:57:23;;;;;;;33.90;21.87;;;5.30;35.60;;;;;;5006885;28;20494;-64
2023/12/08 19:59:52;;;;;;;32.77;21.53;;;5.30;35.50;;;;;;5002028;28;20486;-64
2023/12/08 20:02:19;;;;;;;33.50;20.93;;;5.30;35.60;;;;;;5001630;28;20486;-64
2023/12/08 20:04:48;;;;;;;29.67;20.40;;;5.40;35.60;;;;;;5004730;28;20482;-64
2023/12/08 20:07:15;;;;;;;33.87;20.10;;;5.30;35.70;;;;;;5006501;28;20486;-64
2023/12/08 20:09:42;;;;;;;34.77;22.00;;;5.30;36.20;;;;;;5003539;28;21947;-64
2023/12/08 20:12:10;;;;;;;30.77;19.53;;;5.30;35.70;;;;;;5006555;28;20452;-64
2023/12/08 20:14:37;;;;;;;30.77;19.93;;;5.30;35.80;;;;;;5006349;28;20468;-65
2023/12/08 20:17:05;;;;;;;35.57;21.40;;;5.30;35.80;;;;;;5004739;28;20487;-63
2023/12/08 20:19:32;;;;;;;29.90;19.50;;;5.40;35.80;;;;;;5010252;28;20464;-63
2023/12/08 20:22:00;;;;;;;31.50;21.07;;;5.40;35.80;;;;;;5007126;28;20810;-63
2023/12/08 20:24:27;;;;;;;32.70;20.93;;;5.40;35.90;;;;;;5007835;28;20546;-63
2023/12/08 20:26:54;;;;;;;31.20;20.40;;;5.40;35.80;;;;;;5008189;28;20494;-63
2023/12/08 20:29:21;;;;;;;28.30;19.13;;;5.40;35.90;;;;;;5011701;28;20472;-63
2023/12/08 20:31:49;;;;;;;30.37;20.30;;;5.40;35.90;;;;;;5007903;28;20466;-63
2023/12/08 20:34:16;;;;;;;36.60;21.77;;;5.40;36.10;;;;;;5007048;28;20474;-63
2023/12/08 20:36:44;;;;;;;32.07;20.00;;;5.40;35.90;;;;;;5004138;28;20492;-63
2023/12/08 20:39:13;;;;;;;32.90;22.37;;;5.40;36.00;;;;;;4996765;28;20476;-63
2023/12/08 20:41:42;;;;;;;35.03;21.13;;;5.40;36.10;;;;;;5010510;28;20472;-63
2023/12/08 20:44:09;;;;;;;28.53;18.53;;;5.40;36.00;;;;;;5000975;28;20870;-64
2023/12/08 20:46:36;;;;;;;32.80;20.37;;;5.40;36.00;;;;;;5007825;28;20567;-64